createdAt,value
2022-08-03T00:02:56.098Z,14.90
2022-08-03T00:12:59.780Z,14.00
2022-08-03T00:23:03.821Z,14.80
2022-08-03T00:33:07.073Z,12.20
2022-08-03T00:43:11.743Z,14.80
2022-08-03T00:53:15.407Z,12.40
2022-08-03T01:03:22.247Z,13.60
2022-08-03T01:14:03.507Z,12.70
2022-08-03T01:24:54.422Z,16.70
2022-08-03T01:35:12.961Z,14.70
2022-08-03T01:45:19.831Z,15.90
2022-08-03T01:55:32.233Z,16.00
2022-08-03T02:05:43.617Z,13.40
2022-08-03T02:15:48.582Z,15.10
2022-08-03T02:25:57.915Z,15.40
2022-08-03T02:36:06.494Z,12.80
2022-08-03T02:46:15.164Z,12.20
2022-08-03T02:56:24.347Z,13.50
2022-08-03T03:06:33.639Z,13.60
2022-08-03T03:16:37.228Z,12.50
2022-08-03T03:27:58.572Z,12.50
2022-08-03T03:38:16.916Z,13.00
2022-08-03T03:48:20.788Z,13.10
2022-08-03T03:58:24.858Z,12.70
2022-08-03T04:19:12.382Z,14.20
2022-08-03T04:29:16.244Z,16.10
2022-08-03T04:39:26.810Z,15.80
2022-08-03T04:49:33.517Z,15.30
2022-08-03T04:59:39.125Z,15.80
2022-08-03T05:09:50.620Z,15.30
2022-08-03T05:20:07.185Z,15.00
2022-08-03T05:30:27.307Z,18.20
2022-08-03T05:40:37.835Z,17.20
2022-08-03T05:50:50.038Z,17.20
2022-08-03T06:01:18.005Z,17.60
2022-08-03T06:11:21.441Z,16.90
2022-08-03T06:21:24.714Z,18.50
2022-08-03T06:31:36.698Z,19.20
2022-08-03T06:41:44.826Z,23.10
2022-08-03T06:52:06.018Z,23.80
2022-08-03T07:02:10.614Z,24.50
2022-08-03T07:22:18.990Z,19.10
2022-08-03T07:32:22.475Z,20.50
2022-08-03T07:42:27.142Z,16.40
2022-08-03T07:52:48.475Z,18.10
2022-08-03T08:02:51.646Z,10.80
2022-08-03T08:12:55.803Z,12.40
2022-08-03T08:23:08.874Z,6.90
2022-08-03T08:33:37.381Z,7.80
2022-08-03T08:43:45.673Z,6.40
2022-08-03T08:53:53.917Z,6.60
2022-08-03T09:03:57.214Z,11.00
2022-08-03T09:14:00.650Z,6.80
2022-08-03T09:24:10.292Z,8.80
2022-08-03T09:34:26.003Z,5.60
2022-08-03T09:44:43.830Z,5.80
2022-08-03T09:54:52.426Z,4.80
2022-08-03T10:04:55.634Z,4.70
2022-08-03T10:14:58.867Z,6.50
2022-08-03T10:25:13.669Z,5.00
2022-08-03T10:35:24.084Z,6.10
2022-08-03T10:45:28.224Z,5.90
2022-08-03T10:55:58.766Z,5.00
2022-08-03T11:18:11.821Z,5.80
2022-08-03T11:28:42.649Z,5.70
2022-08-03T11:39:18.270Z,4.70
2022-08-03T11:49:24.267Z,6.00
2022-08-03T11:59:35.373Z,6.60
2022-08-03T12:09:42.047Z,5.00
2022-08-03T12:19:45.581Z,5.30
2022-08-03T12:29:57.267Z,5.00
2022-08-03T12:40:15.154Z,5.00
2022-08-03T12:50:36.810Z,5.50
2022-08-03T13:00:40.531Z,6.80
2022-08-03T13:10:46.154Z,4.70
2022-08-03T13:20:49.633Z,4.80
2022-08-03T13:30:54.997Z,6.60
2022-08-03T13:40:59.133Z,5.10
2022-08-03T13:51:05.601Z,5.20
2022-08-03T14:01:54.291Z,5.00
2022-08-03T14:12:07.959Z,5.30
2022-08-03T14:22:17.127Z,4.70
2022-08-03T14:32:20.444Z,5.10
2022-08-03T14:42:24.001Z,5.00
2022-08-03T14:52:27.319Z,6.00
2022-08-03T15:02:30.573Z,5.10
2022-08-03T15:12:33.733Z,5.00
2022-08-03T15:22:40.280Z,5.70
2022-08-03T15:32:43.446Z,5.80
2022-08-03T15:42:47.896Z,6.40
2022-08-03T15:52:51.226Z,5.60
2022-08-03T16:02:55.730Z,6.10
2022-08-03T16:13:01.199Z,5.80
2022-08-03T16:23:10.716Z,6.80
2022-08-03T16:33:17.372Z,5.40
2022-08-03T16:43:22.632Z,6.60
2022-08-03T16:53:33.678Z,6.70
2022-08-03T17:04:01.918Z,8.40
2022-08-03T17:14:09.753Z,9.20
2022-08-03T17:24:19.929Z,8.40
2022-08-03T17:34:26.648Z,6.30
2022-08-03T17:44:37.636Z,19.60
2022-08-03T17:55:56.496Z,23.20
2022-08-03T18:06:11.788Z,11.20
2022-08-03T18:16:15.628Z,18.90
2022-08-03T18:26:23.665Z,9.60
2022-08-03T18:36:47.290Z,8.60
2022-08-03T18:47:17.037Z,10.60
2022-08-03T18:57:30.205Z,13.50
2022-08-03T19:07:45.718Z,11.00
2022-08-03T19:18:08.813Z,12.10
2022-08-03T19:28:20.052Z,9.90
2022-08-03T19:38:33.440Z,11.80
2022-08-03T19:48:38.540Z,8.80
2022-08-03T19:58:45.576Z,13.00
2022-08-03T20:08:58.659Z,10.90
2022-08-03T20:19:02.129Z,11.70
2022-08-03T20:29:10.261Z,11.10
2022-08-03T20:39:14.357Z,12.70
2022-08-03T20:49:23.224Z,12.30
2022-08-03T20:59:35.053Z,9.90
2022-08-03T21:09:56.084Z,11.00
2022-08-03T21:20:09.214Z,13.10
2022-08-03T21:30:22.729Z,12.90
2022-08-03T21:40:42.263Z,13.00
2022-08-03T21:50:51.357Z,12.30
2022-08-03T22:00:56.123Z,14.90
2022-08-03T22:21:12.155Z,10.70
2022-08-03T22:31:57.208Z,13.50
2022-08-03T22:42:11.085Z,9.40
2022-08-03T22:52:17.855Z,11.90
2022-08-03T23:02:24.506Z,9.50
2022-08-03T23:12:31.278Z,8.00
2022-08-03T23:22:42.849Z,10.40
2022-08-03T23:32:53.901Z,10.00
2022-08-03T23:43:01.518Z,8.50
2022-08-03T23:53:07.681Z,14.20
